createdAt,value
2022-08-28T00:01:15.978Z,19.30
2022-08-28T00:04:02.435Z,19.29
2022-08-28T00:06:47.980Z,19.18
2022-08-28T00:09:33.666Z,18.12
2022-08-28T00:12:19.552Z,18.84
2022-08-28T00:15:09.701Z,19.06
2022-08-28T00:17:59.459Z,18.01
2022-08-28T00:20:46.518Z,18.35
2022-08-28T00:23:42.745Z,18.38
2022-08-28T00:26:47.469Z,18.92
2022-08-28T00:29:34.015Z,18.86
2022-08-28T00:32:28.781Z,17.70
2022-08-28T00:35:14.271Z,18.82
2022-08-28T00:38:00.521Z,18.37
2022-08-28T00:40:48.901Z,18.76
2022-08-28T00:43:42.369Z,17.66
2022-08-28T00:46:27.812Z,18.64
2022-08-28T00:49:17.365Z,18.69
2022-08-28T00:52:11.816Z,18.19
2022-08-28T00:55:14.124Z,18.68
2022-08-28T00:58:01.053Z,18.65
2022-08-28T01:00:46.619Z,18.58
2022-08-28T01:03:32.469Z,18.49
2022-08-28T01:06:20.859Z,17.52
2022-08-28T01:09:06.547Z,18.30
2022-08-28T01:11:56.458Z,17.81
2022-08-28T01:14:46.009Z,18.35
2022-08-28T01:17:34.950Z,18.10
2022-08-28T01:20:25.967Z,18.29
2022-08-28T01:23:36.094Z,18.28
2022-08-28T01:26:22.841Z,17.90
2022-08-28T01:29:09.613Z,18.07
2022-08-28T01:31:55.417Z,17.90
2022-08-28T01:34:41.310Z,17.41
2022-08-28T01:37:26.953Z,17.92
2022-08-28T01:40:17.635Z,18.01
2022-08-28T01:43:12.694Z,17.83
2022-08-28T01:46:02.267Z,16.72
2022-08-28T01:48:48.799Z,17.92
2022-08-28T01:51:35.182Z,17.94
2022-08-28T01:54:26.298Z,17.91
2022-08-28T01:57:12.803Z,17.83
2022-08-28T01:59:58.821Z,17.89
2022-08-28T02:02:44.368Z,16.98
2022-08-28T02:05:32.650Z,16.70
2022-08-28T02:08:18.635Z,16.70
2022-08-28T02:11:06.441Z,17.70
2022-08-28T02:13:54.258Z,17.74
2022-08-28T02:16:39.952Z,17.68
2022-08-28T02:19:25.419Z,17.15
2022-08-28T02:22:13.451Z,17.21
2022-08-28T02:25:00.455Z,16.47
2022-08-28T02:27:46.179Z,16.98
2022-08-28T02:30:32.206Z,17.59
2022-08-28T02:33:18.046Z,17.51
2022-08-28T02:36:03.656Z,17.53
2022-08-28T02:38:54.145Z,16.31
2022-08-28T02:41:43.422Z,17.26
2022-08-28T02:44:28.876Z,17.24
2022-08-28T02:47:15.323Z,17.15
2022-08-28T02:50:00.984Z,16.33
2022-08-28T02:52:47.218Z,17.47
2022-08-28T02:55:34.313Z,16.31
2022-08-28T02:58:20.238Z,16.90
2022-08-28T03:01:07.701Z,17.36
2022-08-28T03:03:53.588Z,17.13
2022-08-28T03:06:39.329Z,16.99
2022-08-28T03:09:27.390Z,17.06
2022-08-28T03:12:17.128Z,16.28
2022-08-28T03:15:03.838Z,17.32
2022-08-28T03:17:49.723Z,17.38
2022-08-28T03:20:36.107Z,17.34
2022-08-28T03:23:27.503Z,17.37
2022-08-28T03:26:20.827Z,17.29
2022-08-28T03:29:07.489Z,17.17
2022-08-28T03:31:53.654Z,15.91
2022-08-28T03:34:41.231Z,17.06
2022-08-28T03:37:27.276Z,16.96
2022-08-28T03:40:25.900Z,17.18
2022-08-28T03:43:17.566Z,17.15
2022-08-28T03:46:06.765Z,17.11
2022-08-28T03:48:55.312Z,17.12
2022-08-28T03:51:42.688Z,17.02
2022-08-28T03:54:32.120Z,17.10
2022-08-28T03:57:21.386Z,17.02
2022-08-28T04:00:12.695Z,17.22
2022-08-28T04:02:58.658Z,17.25
2022-08-28T04:05:47.374Z,17.30
2022-08-28T04:08:34.589Z,17.28
2022-08-28T04:11:21.041Z,17.21
2022-08-28T04:14:07.192Z,16.98
2022-08-28T04:16:53.070Z,16.02
2022-08-28T04:19:39.824Z,17.15
2022-08-28T04:22:29.349Z,17.17
2022-08-28T04:25:16.526Z,17.21
2022-08-28T04:28:04.368Z,17.28
2022-08-28T04:30:55.903Z,17.32
2022-08-28T04:33:44.457Z,17.25
2022-08-28T04:36:31.993Z,17.04
2022-08-28T04:39:17.953Z,16.55
2022-08-28T04:42:03.566Z,17.16
2022-08-28T04:44:49.539Z,17.13
2022-08-28T04:47:38.948Z,17.16
2022-08-28T04:50:25.646Z,17.19
2022-08-28T04:53:20.850Z,17.22
2022-08-28T04:56:11.788Z,17.30
2022-08-28T04:58:58.466Z,17.34
2022-08-28T05:01:44.728Z,17.38
2022-08-28T05:04:32.811Z,17.57
2022-08-28T05:07:23.827Z,17.75
2022-08-28T05:10:11.596Z,17.62
2022-08-28T05:13:01.856Z,18.11
2022-08-28T05:15:52.160Z,18.46
2022-08-28T05:18:40.600Z,18.86
2022-08-28T05:21:29.506Z,19.28
2022-08-28T05:24:26.152Z,19.63
2022-08-28T05:27:14.107Z,19.95
2022-08-28T05:30:08.794Z,20.13
2022-08-28T05:32:57.791Z,20.22
2022-08-28T05:35:47.662Z,20.32
2022-08-28T05:38:42.131Z,20.34
2022-08-28T05:41:31.103Z,20.42
2022-08-28T05:44:18.229Z,20.16
2022-08-28T05:47:04.498Z,20.50
2022-08-28T05:49:51.509Z,20.47
2022-08-28T05:52:38.065Z,20.36
2022-08-28T05:55:23.844Z,20.37
2022-08-28T05:58:30.455Z,20.31
2022-08-28T06:01:25.204Z,20.35
2022-08-28T06:04:26.878Z,20.45
2022-08-28T06:07:22.323Z,20.56
2022-08-28T06:10:10.768Z,20.32
2022-08-28T06:12:57.325Z,20.88
2022-08-28T06:15:45.554Z,21.07
2022-08-28T06:18:32.707Z,21.13
2022-08-28T06:21:20.889Z,20.48
2022-08-28T06:24:08.475Z,21.71
2022-08-28T06:26:56.529Z,21.98
2022-08-28T06:29:45.947Z,22.00
2022-08-28T06:32:34.986Z,22.34
2022-08-28T06:35:21.899Z,22.54
2022-08-28T06:38:09.811Z,22.70
2022-08-28T06:40:57.227Z,22.80
2022-08-28T06:43:44.726Z,22.88
2022-08-28T06:46:36.703Z,22.95
2022-08-28T06:49:28.183Z,23.07
2022-08-28T06:52:24.519Z,23.13
2022-08-28T06:55:12.230Z,22.31
2022-08-28T06:57:59.341Z,23.40
2022-08-28T07:00:46.328Z,23.56
2022-08-28T07:03:33.416Z,23.71
2022-08-28T07:06:22.559Z,22.96
2022-08-28T07:09:13.367Z,23.66
2022-08-28T07:11:59.126Z,24.09
2022-08-28T07:14:44.992Z,24.20
2022-08-28T07:17:32.439Z,24.32
2022-08-28T07:20:18.769Z,24.42
2022-08-28T07:23:09.202Z,24.51
2022-08-28T07:25:55.631Z,24.60
2022-08-28T07:28:41.669Z,24.63
2022-08-28T07:31:27.949Z,24.21
2022-08-28T07:34:15.223Z,24.53
2022-08-28T07:37:04.331Z,24.33
2022-08-28T07:39:50.245Z,24.73
2022-08-28T07:42:55.483Z,24.81
2022-08-28T07:45:43.599Z,24.83
2022-08-28T07:48:31.077Z,25.07
2022-08-28T07:51:19.010Z,25.20
2022-08-28T07:54:15.558Z,25.34
2022-08-28T07:57:06.507Z,25.24
2022-08-28T07:59:53.250Z,24.89
2022-08-28T08:02:41.032Z,25.76
2022-08-28T08:05:28.205Z,25.93
2022-08-28T08:08:14.539Z,26.06
2022-08-28T08:11:07.955Z,26.17
2022-08-28T08:14:04.842Z,26.20
2022-08-28T08:16:54.645Z,26.30
2022-08-28T08:19:44.261Z,26.37
2022-08-28T08:22:32.285Z,26.37
2022-08-28T08:25:17.956Z,26.34
2022-08-28T08:28:04.922Z,26.34
2022-08-28T08:30:50.955Z,26.39
2022-08-28T08:33:38.934Z,26.32
2022-08-28T08:36:27.207Z,26.48
2022-08-28T08:39:13.355Z,26.47
2022-08-28T08:42:01.319Z,26.30
2022-08-28T08:44:48.952Z,25.76
2022-08-28T08:47:44.032Z,26.48
2022-08-28T08:50:33.228Z,26.38
2022-08-28T08:53:52.008Z,26.71
2022-08-28T08:56:40.089Z,26.51
2022-08-28T08:59:27.603Z,26.86
2022-08-28T09:02:19.368Z,26.95
2022-08-28T09:05:17.001Z,26.17
2022-08-28T09:08:04.529Z,26.23
2022-08-28T09:11:28.837Z,27.30
2022-08-28T09:14:43.959Z,26.53
2022-08-28T09:17:35.284Z,26.58
2022-08-28T09:20:32.498Z,27.51
2022-08-28T09:23:21.437Z,27.35
2022-08-28T09:26:12.885Z,27.52
2022-08-28T09:29:05.471Z,27.41
2022-08-28T09:31:51.303Z,27.78
2022-08-28T09:34:39.264Z,27.85
2022-08-28T09:37:26.665Z,27.49
2022-08-28T09:40:50.449Z,27.84
2022-08-28T09:43:37.811Z,27.98
2022-08-28T09:46:32.294Z,27.98
2022-08-28T09:49:26.111Z,27.99
2022-08-28T09:52:24.593Z,27.95
2022-08-28T09:55:18.456Z,28.01
2022-08-28T09:58:06.707Z,27.66
2022-08-28T10:01:11.239Z,27.46
2022-08-28T10:04:22.474Z,27.97
2022-08-28T10:07:32.613Z,27.93
2022-08-28T10:10:26.975Z,27.93
2022-08-28T10:13:37.104Z,27.34
2022-08-28T10:16:43.491Z,27.97
2022-08-28T10:19:59.479Z,27.32
2022-08-28T10:22:51.006Z,28.09
2022-08-28T10:25:46.360Z,28.15
2022-08-28T10:28:51.560Z,28.23
2022-08-28T10:31:50.081Z,27.40
2022-08-28T10:35:09.088Z,28.28
2022-08-28T10:38:03.950Z,28.31
2022-08-28T10:41:10.948Z,28.39
2022-08-28T10:44:01.767Z,27.73
2022-08-28T10:46:52.275Z,28.53
2022-08-28T10:49:42.186Z,28.57
2022-08-28T10:52:40.959Z,28.55
2022-08-28T10:55:34.731Z,27.72
2022-08-28T10:58:25.993Z,28.63
2022-08-28T11:01:18.732Z,28.06
2022-08-28T11:04:24.929Z,28.64
2022-08-28T11:07:15.306Z,28.75
2022-08-28T11:10:32.370Z,28.80
2022-08-28T11:13:57.539Z,28.86
2022-08-28T11:16:50.502Z,28.84
2022-08-28T11:19:51.646Z,28.78
2022-08-28T11:22:47.039Z,28.72
2022-08-28T11:25:45.633Z,28.74
2022-08-28T11:28:36.800Z,28.76
2022-08-28T11:31:30.696Z,28.80
2022-08-28T11:34:53.950Z,28.92
2022-08-28T11:37:46.335Z,29.01
2022-08-28T11:40:32.447Z,29.10
2022-08-28T11:43:18.797Z,29.12
2022-08-28T11:46:12.102Z,29.12
2022-08-28T11:49:01.123Z,29.13
2022-08-28T11:51:52.760Z,29.12
2022-08-28T11:55:13.544Z,28.99
2022-08-28T12:01:06.083Z,29.24
2022-08-28T12:03:58.814Z,29.26
2022-08-28T12:06:44.435Z,29.26
2022-08-28T12:09:36.611Z,28.46
2022-08-28T12:12:22.150Z,29.34
2022-08-28T12:15:09.914Z,29.01
2022-08-28T12:18:08.780Z,29.29
2022-08-28T12:20:54.823Z,28.54
2022-08-28T12:24:09.053Z,28.54
2022-08-28T12:26:57.243Z,29.34
2022-08-28T12:29:51.704Z,29.28
2022-08-28T12:32:56.338Z,29.07
2022-08-28T12:35:43.921Z,29.25
2022-08-28T12:38:33.656Z,29.16
2022-08-28T12:41:22.141Z,29.16
2022-08-28T12:44:12.232Z,29.15
2022-08-28T12:46:59.507Z,29.18
2022-08-28T12:49:45.750Z,29.19
2022-08-28T12:52:33.747Z,29.25
2022-08-28T12:55:24.327Z,29.27
2022-08-28T12:58:27.970Z,28.69
2022-08-28T13:01:28.424Z,28.47
2022-08-28T13:04:37.201Z,28.70
2022-08-28T13:07:35.366Z,29.28
2022-08-28T13:10:26.882Z,29.22
2022-08-28T13:13:30.911Z,29.22
2022-08-28T13:16:44.996Z,29.20
2022-08-28T13:19:34.608Z,29.04
2022-08-28T13:22:38.887Z,29.25
2022-08-28T13:25:32.423Z,29.28
2022-08-28T13:28:19.653Z,28.95
2022-08-28T13:31:06.343Z,29.26
2022-08-28T13:34:24.675Z,29.23
2022-08-28T13:38:01.215Z,29.25
2022-08-28T13:40:59.811Z,29.23
2022-08-28T13:43:47.913Z,29.17
2022-08-28T13:46:34.182Z,28.45
2022-08-28T13:49:21.485Z,29.07
2022-08-28T13:52:09.559Z,29.08
2022-08-28T13:54:56.113Z,29.05
2022-08-28T13:57:42.672Z,28.86
2022-08-28T14:00:32.488Z,29.06
2022-08-28T14:03:38.482Z,28.63
2022-08-28T14:06:24.499Z,28.82
2022-08-28T14:09:18.360Z,29.04
2022-08-28T14:12:05.311Z,29.08
2022-08-28T14:14:52.883Z,28.14
2022-08-28T14:17:39.907Z,28.82
2022-08-28T14:20:25.507Z,28.72
2022-08-28T14:23:12.368Z,28.75
2022-08-28T14:26:01.430Z,28.99
2022-08-28T14:28:46.611Z,28.62
2022-08-28T14:31:36.430Z,28.99
2022-08-28T14:34:22.968Z,28.76
2022-08-28T14:37:09.224Z,28.94
2022-08-28T14:39:55.606Z,28.77
2022-08-28T14:42:41.947Z,28.93
2022-08-28T14:45:27.452Z,28.71
2022-08-28T14:48:14.466Z,28.05
2022-08-28T14:51:01.797Z,28.91
2022-08-28T14:53:47.486Z,28.88
2022-08-28T14:56:33.239Z,28.88
2022-08-28T14:59:24.543Z,28.71
2022-08-28T15:02:10.355Z,27.99
2022-08-28T15:04:56.095Z,28.87
2022-08-28T15:07:42.076Z,28.60
2022-08-28T15:10:27.538Z,28.89
2022-08-28T15:13:13.305Z,28.93
2022-08-28T15:16:03.595Z,28.91
2022-08-28T15:18:49.659Z,28.07
2022-08-28T15:21:40.539Z,28.91
2022-08-28T15:24:28.672Z,28.94
2022-08-28T15:27:14.427Z,28.89
2022-08-28T15:29:59.963Z,28.88
2022-08-28T15:32:47.431Z,28.86
2022-08-28T15:35:34.495Z,28.84
2022-08-28T15:38:20.153Z,28.76
2022-08-28T15:41:24.204Z,28.75
2022-08-28T15:44:14.440Z,28.73
2022-08-28T15:47:03.182Z,28.59
2022-08-28T15:49:54.913Z,28.72
2022-08-28T15:52:41.495Z,28.69
2022-08-28T15:55:28.961Z,28.55
2022-08-28T15:58:14.893Z,28.55
2022-08-28T16:01:00.571Z,28.34
2022-08-28T16:03:46.230Z,28.45
2022-08-28T16:06:32.782Z,27.65
2022-08-28T16:09:18.661Z,27.38
2022-08-28T16:12:04.865Z,28.20
2022-08-28T16:14:50.618Z,28.09
2022-08-28T16:17:37.088Z,27.41
2022-08-28T16:20:22.995Z,27.58
2022-08-28T16:23:10.133Z,27.84
2022-08-28T16:25:55.739Z,27.80
2022-08-28T16:28:42.404Z,27.13
2022-08-28T16:31:29.115Z,27.63
2022-08-28T16:34:19.475Z,27.57
2022-08-28T16:37:07.903Z,27.50
2022-08-28T16:39:56.890Z,27.43
2022-08-28T16:42:51.295Z,27.33
2022-08-28T16:45:40.555Z,27.27
2022-08-28T16:48:30.513Z,27.12
2022-08-28T16:51:19.011Z,26.95
2022-08-28T16:54:07.248Z,26.84
2022-08-28T16:56:55.542Z,26.78
2022-08-28T16:59:41.923Z,26.74
2022-08-28T17:02:31.263Z,26.70
2022-08-28T17:05:20.643Z,26.62
2022-08-28T17:08:08.506Z,26.62
2022-08-28T17:10:55.809Z,26.59
2022-08-28T17:13:43.907Z,26.58
2022-08-28T17:16:34.347Z,26.55
2022-08-28T17:19:24.705Z,26.50
2022-08-28T17:22:30.044Z,26.23
2022-08-28T17:25:16.118Z,26.40
2022-08-28T17:28:06.142Z,26.34
2022-08-28T17:30:52.088Z,25.91
2022-08-28T17:33:41.553Z,26.38
2022-08-28T17:36:33.382Z,26.34
2022-08-28T17:39:22.913Z,26.27
2022-08-28T17:42:11.429Z,26.22
2022-08-28T17:44:58.303Z,26.15
2022-08-28T17:47:44.975Z,26.10
2022-08-28T17:50:31.400Z,25.19
2022-08-28T17:53:18.702Z,25.20
2022-08-28T17:56:08.002Z,25.98
2022-08-28T17:58:56.561Z,25.86
2022-08-28T18:01:48.908Z,25.97
2022-08-28T18:04:37.341Z,25.95
2022-08-28T18:07:32.204Z,25.93
2022-08-28T18:10:20.151Z,25.91
2022-08-28T18:13:14.389Z,25.87
2022-08-28T18:16:03.058Z,25.82
2022-08-28T18:18:51.437Z,25.73
2022-08-28T18:23:00.775Z,25.55
2022-08-28T18:25:46.652Z,24.45
2022-08-28T18:28:43.035Z,25.38
2022-08-28T18:31:29.618Z,25.35
2022-08-28T18:34:16.529Z,25.38
2022-08-28T18:37:03.461Z,25.39
2022-08-28T18:39:51.697Z,25.38
2022-08-28T18:42:42.605Z,25.37
2022-08-28T18:45:31.916Z,25.38
2022-08-28T18:48:20.609Z,25.35
2022-08-28T18:51:10.837Z,25.40
2022-08-28T18:54:02.091Z,25.37
2022-08-28T18:57:04.304Z,25.37
2022-08-28T18:59:53.241Z,25.31
2022-08-28T19:02:41.761Z,25.28
2022-08-28T19:05:30.811Z,25.18
2022-08-28T19:08:20.310Z,24.68
2022-08-28T19:11:11.255Z,24.18
2022-08-28T19:14:06.158Z,24.92
2022-08-28T19:16:58.166Z,24.93
2022-08-28T19:19:52.638Z,24.94
2022-08-28T19:22:40.639Z,24.92
2022-08-28T19:25:34.072Z,24.86
2022-08-28T19:28:22.559Z,24.81
2022-08-28T19:31:10.082Z,24.74
2022-08-28T19:33:57.830Z,24.73
2022-08-28T19:36:43.957Z,24.73
2022-08-28T19:39:30.258Z,24.70
2022-08-28T19:42:17.736Z,24.74
2022-08-28T19:45:11.041Z,24.73
2022-08-28T19:47:56.771Z,24.06
2022-08-28T19:50:44.060Z,24.66
2022-08-28T19:53:31.312Z,24.36
2022-08-28T19:56:17.125Z,23.70
2022-08-28T19:59:04.438Z,24.63
2022-08-28T20:01:50.270Z,23.69
2022-08-28T20:04:36.591Z,24.60
2022-08-28T20:07:24.539Z,24.38
2022-08-28T20:10:11.529Z,24.50
2022-08-28T20:12:58.678Z,24.44
2022-08-28T20:15:46.311Z,24.40
2022-08-28T20:18:33.395Z,23.51
2022-08-28T20:21:28.730Z,24.36
2022-08-28T20:24:24.231Z,24.29
2022-08-28T20:27:10.480Z,23.59
2022-08-28T20:29:57.237Z,24.08
2022-08-28T20:32:43.458Z,24.05
2022-08-28T20:35:29.834Z,24.07
2022-08-28T20:38:15.729Z,23.74
2022-08-28T20:41:18.361Z,24.12
2022-08-28T20:44:07.675Z,23.91
2022-08-28T20:46:53.735Z,24.11
2022-08-28T20:49:40.693Z,23.84
2022-08-28T20:52:26.826Z,23.83
2022-08-28T20:55:14.316Z,24.04
2022-08-28T20:58:00.081Z,24.06
2022-08-28T21:00:47.010Z,23.96
2022-08-28T21:03:32.928Z,23.90
2022-08-28T21:06:18.733Z,23.82
2022-08-28T21:12:48.238Z,23.85
2022-08-28T21:15:35.809Z,22.90
2022-08-28T21:18:21.293Z,23.18
2022-08-28T21:21:10.173Z,22.89
2022-08-28T21:23:56.554Z,23.81
2022-08-28T21:26:49.937Z,23.47
2022-08-28T21:29:37.644Z,23.34
2022-08-28T21:32:23.463Z,23.55
2022-08-28T21:35:12.774Z,22.59
2022-08-28T21:38:05.966Z,23.25
2022-08-28T21:41:02.247Z,23.49
2022-08-28T21:43:48.224Z,23.52
2022-08-28T21:46:34.854Z,23.50
2022-08-28T21:49:22.737Z,22.53
2022-08-28T21:52:08.747Z,23.41
2022-08-28T21:55:04.239Z,23.60
2022-08-28T21:57:52.330Z,23.34
2022-08-28T22:00:38.141Z,23.50
2022-08-28T22:03:25.341Z,23.45
2022-08-28T22:06:13.608Z,22.50
2022-08-28T22:09:00.115Z,22.37
2022-08-28T22:11:46.413Z,23.26
2022-08-28T22:14:32.805Z,23.17
2022-08-28T22:17:18.823Z,23.01
2022-08-28T22:20:05.548Z,22.84
2022-08-28T22:23:10.087Z,22.22
2022-08-28T22:25:56.026Z,22.88
2022-08-28T22:28:41.396Z,22.51
2022-08-28T22:31:31.135Z,22.59
2022-08-28T22:34:18.834Z,22.50
2022-08-28T22:37:04.319Z,21.70
2022-08-28T22:39:50.109Z,22.67
2022-08-28T22:42:39.131Z,22.71
2022-08-28T22:45:26.079Z,22.23
2022-08-28T22:48:15.932Z,22.72
2022-08-28T22:51:09.393Z,22.68
2022-08-28T22:53:56.555Z,22.62
2022-08-28T22:56:42.875Z,21.62
2022-08-28T22:59:28.480Z,22.58
2022-08-28T23:02:14.284Z,22.34
2022-08-28T23:04:59.989Z,22.55
2022-08-28T23:07:45.864Z,22.54
2022-08-28T23:10:55.187Z,22.51
2022-08-28T23:13:38.210Z,21.68
2022-08-28T23:16:24.241Z,22.35
2022-08-28T23:19:13.469Z,22.27
2022-08-28T23:21:59.969Z,22.12
2022-08-28T23:24:46.995Z,21.61
2022-08-28T23:27:36.169Z,20.89
2022-08-28T23:30:23.788Z,20.94
2022-08-28T23:33:09.509Z,21.75
2022-08-28T23:35:54.987Z,20.72
2022-08-28T23:38:43.186Z,20.67
2022-08-28T23:41:29.228Z,21.52
2022-08-28T23:44:16.821Z,20.90
2022-08-28T23:47:02.664Z,20.53
2022-08-28T23:49:48.762Z,21.42
2022-08-28T23:52:35.570Z,21.34
2022-08-28T23:55:21.449Z,21.59
2022-08-28T23:58:07.660Z,21.64
